sensor_id;sensor_type;location;lat;lon;timestamp;P1;durP1;ratioP1;P2;durP2;ratioP2
60819;SDS011;46641;48.904;9.126;2023-12-28T00:03:11;2.60;;;2.40;;
60819;SDS011;46641;48.904;9.126;2023-12-28T00:08:01;3.17;;;2.53;;
60819;SDS011;46641;48.904;9.126;2023-12-28T00:12:52;2.42;;;2.22;;
60819;SDS011;46641;48.904;9.126;2023-12-28T00:17:42;2.57;;;2.37;;
60819;SDS011;46641;48.904;9.126;2023-12-28T00:22:32;2.22;;;2.03;;
60819;SDS011;46641;48.904;9.126;2023-12-28T00:27:22;2.70;;;2.50;;
60819;SDS011;46641;48.904;9.126;2023-12-28T00:32:13;5.03;;;2.25;;
60819;SDS011;46641;48.904;9.126;2023-12-28T00:37:03;2.67;;;2.40;;
60819;SDS011;46641;48.904;9.126;2023-12-28T00:41:53;2.47;;;2.27;;
60819;SDS011;46641;48.904;9.126;2023-12-28T00:46:44;2.28;;;2.10;;
60819;SDS011;46641;48.904;9.126;2023-12-28T00:51:34;2.60;;;2.20;;
60819;SDS011;46641;48.904;9.126;2023-12-28T00:56:24;2.20;;;2.00;;
60819;SDS011;46641;48.904;9.126;2023-12-28T01:01:15;2.77;;;2.40;;
60819;SDS011;46641;48.904;9.126;2023-12-28T01:06:05;2.07;;;1.90;;
60819;SDS011;46641;48.904;9.126;2023-12-28T01:10:56;2.00;;;1.90;;
60819;SDS011;46641;48.904;9.126;2023-12-28T01:15:46;2.33;;;2.13;;
60819;SDS011;46641;48.904;9.126;2023-12-28T01:20:37;2.00;;;1.90;;
60819;SDS011;46641;48.904;9.126;2023-12-28T01:25:27;2.80;;;2.00;;
60819;SDS011;46641;48.904;9.126;2023-12-28T01:30:17;1.80;;;1.70;;
60819;SDS011;46641;48.904;9.126;2023-12-28T01:35:08;1.75;;;1.65;;
60819;SDS011;46641;48.904;9.126;2023-12-28T01:39:58;2.40;;;2.20;;
60819;SDS011;46641;48.904;9.126;2023-12-28T01:44:50;1.90;;;1.80;;
60819;SDS011;46641;48.904;9.126;2023-12-28T01:49:40;2.15;;;1.80;;
60819;SDS011;46641;48.904;9.126;2023-12-28T01:54:31;2.00;;;1.80;;
60819;SDS011;46641;48.904;9.126;2023-12-28T01:59:21;1.40;;;1.30;;
60819;SDS011;46641;48.904;9.126;2023-12-28T02:04:12;2.10;;;2.00;;
60819;SDS011;46641;48.904;9.126;2023-12-28T02:09:02;1.83;;;1.50;;
60819;SDS011;46641;48.904;9.126;2023-12-28T02:13:53;1.77;;;1.60;;
60819;SDS011;46641;48.904;9.126;2023-12-28T02:18:44;2.00;;;1.70;;
60819;SDS011;46641;48.904;9.126;2023-12-28T02:23:39;1.60;;;1.50;;
60819;SDS011;46641;48.904;9.126;2023-12-28T02:28:35;3.23;;;2.53;;
60819;SDS011;46641;48.904;9.126;2023-12-28T02:33:28;1.60;;;1.50;;
60819;SDS011;46641;48.904;9.126;2023-12-28T02:38:24;2.27;;;2.13;;
60819;SDS011;46641;48.904;9.126;2023-12-28T02:43:17;2.23;;;1.80;;
60819;SDS011;46641;48.904;9.126;2023-12-28T02:48:08;1.70;;;1.60;;
60819;SDS011;46641;48.904;9.126;2023-12-28T02:52:59;1.93;;;1.73;;
60819;SDS011;46641;48.904;9.126;2023-12-28T02:57:49;1.97;;;1.87;;
60819;SDS011;46641;48.904;9.126;2023-12-28T03:02:40;2.47;;;1.83;;
60819;SDS011;46641;48.904;9.126;2023-12-28T03:07:31;1.87;;;1.77;;
60819;SDS011;46641;48.904;9.126;2023-12-28T03:12:22;1.77;;;1.67;;
60819;SDS011;46641;48.904;9.126;2023-12-28T03:17:12;1.98;;;1.88;;
60819;SDS011;46641;48.904;9.126;2023-12-28T03:22:03;1.70;;;1.60;;
60819;SDS011;46641;48.904;9.126;2023-12-28T03:26:54;1.92;;;1.73;;
60819;SDS011;46641;48.904;9.126;2023-12-28T03:31:44;1.88;;;1.58;;
60819;SDS011;46641;48.904;9.126;2023-12-28T03:36:34;2.20;;;1.80;;
60819;SDS011;46641;48.904;9.126;2023-12-28T03:41:24;1.63;;;1.52;;
60819;SDS011;46641;48.904;9.126;2023-12-28T03:46:15;1.80;;;1.70;;
60819;SDS011;46641;48.904;9.126;2023-12-28T03:51:05;2.03;;;1.83;;
60819;SDS011;46641;48.904;9.126;2023-12-28T03:55:55;2.13;;;1.93;;
60819;SDS011;46641;48.904;9.126;2023-12-28T04:00:46;1.73;;;1.63;;
60819;SDS011;46641;48.904;9.126;2023-12-28T04:05:36;1.67;;;1.58;;
60819;SDS011;46641;48.904;9.126;2023-12-28T04:10:31;1.95;;;1.80;;
60819;SDS011;46641;48.904;9.126;2023-12-28T04:15:23;2.13;;;1.80;;
60819;SDS011;46641;48.904;9.126;2023-12-28T04:20:16;3.03;;;1.73;;
60819;SDS011;46641;48.904;9.126;2023-12-28T04:25:06;2.47;;;1.70;;
60819;SDS011;46641;48.904;9.126;2023-12-28T04:29:57;1.70;;;1.60;;
60819;SDS011;46641;48.904;9.126;2023-12-28T04:34:47;1.50;;;1.40;;
60819;SDS011;46641;48.904;9.126;2023-12-28T04:39:37;2.60;;;1.92;;
60819;SDS011;46641;48.904;9.126;2023-12-28T04:44:27;1.40;;;1.30;;
60819;SDS011;46641;48.904;9.126;2023-12-28T04:49:18;1.63;;;1.52;;
60819;SDS011;46641;48.904;9.126;2023-12-28T04:54:08;1.50;;;1.40;;
60819;SDS011;46641;48.904;9.126;2023-12-28T04:58:58;1.55;;;1.45;;
60819;SDS011;46641;48.904;9.126;2023-12-28T05:03:49;1.97;;;1.80;;
60819;SDS011;46641;48.904;9.126;2023-12-28T05:08:39;2.10;;;1.70;;
60819;SDS011;46641;48.904;9.126;2023-12-28T05:13:29;1.75;;;1.48;;
60819;SDS011;46641;48.904;9.126;2023-12-28T05:18:20;1.80;;;1.63;;
60819;SDS011;46641;48.904;9.126;2023-12-28T05:23:10;1.60;;;1.50;;
60819;SDS011;46641;48.904;9.126;2023-12-28T05:28:00;3.13;;;1.50;;
60819;SDS011;46641;48.904;9.126;2023-12-28T05:32:50;2.10;;;1.58;;
60819;SDS011;46641;48.904;9.126;2023-12-28T05:37:41;1.80;;;1.70;;
60819;SDS011;46641;48.904;9.126;2023-12-28T05:42:31;2.15;;;1.67;;
60819;SDS011;46641;48.904;9.126;2023-12-28T05:47:21;2.00;;;1.80;;
60819;SDS011;46641;48.904;9.126;2023-12-28T05:52:12;1.60;;;1.50;;
60819;SDS011;46641;48.904;9.126;2023-12-28T05:57:05;1.50;;;1.40;;
60819;SDS011;46641;48.904;9.126;2023-12-28T06:01:55;1.45;;;1.35;;
60819;SDS011;46641;48.904;9.126;2023-12-28T06:06:47;1.70;;;1.57;;
60819;SDS011;46641;48.904;9.126;2023-12-28T06:11:37;2.03;;;1.83;;
60819;SDS011;46641;48.904;9.126;2023-12-28T06:16:27;2.20;;;1.95;;
60819;SDS011;46641;48.904;9.126;2023-12-28T06:21:21;1.53;;;1.43;;
60819;SDS011;46641;48.904;9.126;2023-12-28T06:26:11;2.10;;;1.70;;
60819;SDS011;46641;48.904;9.126;2023-12-28T06:31:01;3.30;;;2.03;;
60819;SDS011;46641;48.904;9.126;2023-12-28T06:35:53;2.63;;;1.97;;
60819;SDS011;46641;48.904;9.126;2023-12-28T06:40:43;2.83;;;1.75;;
60819;SDS011;46641;48.904;9.126;2023-12-28T06:45:33;3.45;;;2.10;;
60819;SDS011;46641;48.904;9.126;2023-12-28T06:50:24;2.20;;;1.90;;
60819;SDS011;46641;48.904;9.126;2023-12-28T06:55:14;2.83;;;2.13;;
60819;SDS011;46641;48.904;9.126;2023-12-28T07:00:04;3.10;;;2.30;;
60819;SDS011;46641;48.904;9.126;2023-12-28T07:04:55;2.70;;;2.50;;
60819;SDS011;46641;48.904;9.126;2023-12-28T07:09:45;2.92;;;2.40;;
60819;SDS011;46641;48.904;9.126;2023-12-28T07:14:36;2.15;;;1.77;;
60819;SDS011;46641;48.904;9.126;2023-12-28T07:19:26;1.80;;;1.20;;
60819;SDS011;46641;48.904;9.126;2023-12-28T07:24:16;1.47;;;1.37;;
60819;SDS011;46641;48.904;9.126;2023-12-28T07:29:06;3.03;;;1.60;;
60819;SDS011;46641;48.904;9.126;2023-12-28T07:33:57;1.90;;;1.23;;
60819;SDS011;46641;48.904;9.126;2023-12-28T07:38:47;1.30;;;1.20;;
60819;SDS011;46641;48.904;9.126;2023-12-28T07:43:38;1.25;;;1.15;;
60819;SDS011;46641;48.904;9.126;2023-12-28T07:48:29;1.27;;;1.03;;
60819;SDS011;46641;48.904;9.126;2023-12-28T07:53:20;1.30;;;1.20;;
60819;SDS011;46641;48.904;9.126;2023-12-28T07:58:10;1.40;;;1.23;;
60819;SDS011;46641;48.904;9.126;2023-12-28T08:03:01;2.05;;;1.40;;
60819;SDS011;46641;48.904;9.126;2023-12-28T08:07:51;2.40;;;1.73;;
60819;SDS011;46641;48.904;9.126;2023-12-28T08:12:41;1.52;;;1.42;;
60819;SDS011;46641;48.904;9.126;2023-12-28T08:17:33;1.37;;;1.13;;
60819;SDS011;46641;48.904;9.126;2023-12-28T08:22:23;1.57;;;1.47;;
60819;SDS011;46641;48.904;9.126;2023-12-28T08:27:13;1.80;;;1.55;;
60819;SDS011;46641;48.904;9.126;2023-12-28T08:32:03;2.30;;;2.07;;
60819;SDS011;46641;48.904;9.126;2023-12-28T08:36:54;5.30;;;4.80;;
60819;SDS011;46641;48.904;9.126;2023-12-28T08:41:44;4.20;;;3.80;;
60819;SDS011;46641;48.904;9.126;2023-12-28T08:46:34;4.68;;;3.50;;
60819;SDS011;46641;48.904;9.126;2023-12-28T08:51:25;3.83;;;2.88;;
60819;SDS011;46641;48.904;9.126;2023-12-28T08:56:21;2.75;;;2.47;;
60819;SDS011;46641;48.904;9.126;2023-12-28T09:01:16;3.23;;;2.53;;
60819;SDS011;46641;48.904;9.126;2023-12-28T09:06:11;5.47;;;3.97;;
60819;SDS011;46641;48.904;9.126;2023-12-28T09:11:01;5.77;;;4.53;;
60819;SDS011;46641;48.904;9.126;2023-12-28T09:15:52;4.53;;;3.87;;
60819;SDS011;46641;48.904;9.126;2023-12-28T09:20:42;3.80;;;3.40;;
60819;SDS011;46641;48.904;9.126;2023-12-28T09:25:33;3.73;;;2.80;;
60819;SDS011;46641;48.904;9.126;2023-12-28T09:30:23;4.38;;;3.03;;
60819;SDS011;46641;48.904;9.126;2023-12-28T09:35:13;4.15;;;3.10;;
60819;SDS011;46641;48.904;9.126;2023-12-28T09:40:04;5.27;;;2.97;;
60819;SDS011;46641;48.904;9.126;2023-12-28T09:44:54;4.87;;;4.30;;
60819;SDS011;46641;48.904;9.126;2023-12-28T09:49:46;3.73;;;3.30;;
60819;SDS011;46641;48.904;9.126;2023-12-28T09:54:37;2.87;;;2.50;;
60819;SDS011;46641;48.904;9.126;2023-12-28T09:59:28;2.63;;;2.00;;
60819;SDS011;46641;48.904;9.126;2023-12-28T10:04:18;3.40;;;2.77;;
60819;SDS011;46641;48.904;9.126;2023-12-28T10:09:09;3.60;;;2.70;;
60819;SDS011;46641;48.904;9.126;2023-12-28T10:14:00;4.27;;;2.83;;
60819;SDS011;46641;48.904;9.126;2023-12-28T10:18:52;3.20;;;2.90;;
60819;SDS011;46641;48.904;9.126;2023-12-28T10:23:42;5.10;;;3.40;;
60819;SDS011;46641;48.904;9.126;2023-12-28T10:28:32;5.60;;;3.70;;
60819;SDS011;46641;48.904;9.126;2023-12-28T10:33:25;4.50;;;4.10;;
60819;SDS011;46641;48.904;9.126;2023-12-28T10:38:15;5.70;;;3.70;;
60819;SDS011;46641;48.904;9.126;2023-12-28T10:43:06;4.33;;;4.00;;
60819;SDS011;46641;48.904;9.126;2023-12-28T10:53:00;5.63;;;3.50;;
60819;SDS011;46641;48.904;9.126;2023-12-28T10:58:11;4.10;;;3.70;;
60819;SDS011;46641;48.904;9.126;2023-12-28T11:03:06;4.50;;;3.77;;
60819;SDS011;46641;48.904;9.126;2023-12-28T11:08:00;6.20;;;4.03;;
60819;SDS011;46641;48.904;9.126;2023-12-28T11:12:53;5.50;;;4.20;;
60819;SDS011;46641;48.904;9.126;2023-12-28T11:17:44;1.73;;;1.30;;
60819;SDS011;46641;48.904;9.126;2023-12-28T11:22:34;1.67;;;1.07;;
60819;SDS011;46641;48.904;9.126;2023-12-28T11:27:32;2.80;;;1.30;;
60819;SDS011;46641;48.904;9.126;2023-12-28T11:32:23;1.23;;;1.17;;
60819;SDS011;46641;48.904;9.126;2023-12-28T11:37:14;1.40;;;1.20;;
60819;SDS011;46641;48.904;9.126;2023-12-28T11:42:08;1.00;;;1.00;;
60819;SDS011;46641;48.904;9.126;2023-12-28T11:46:59;1.53;;;0.90;;
60819;SDS011;46641;48.904;9.126;2023-12-28T11:52:01;2.10;;;1.50;;
60819;SDS011;46641;48.904;9.126;2023-12-28T11:56:51;1.85;;;1.10;;
60819;SDS011;46641;48.904;9.126;2023-12-28T12:01:42;1.40;;;1.23;;
60819;SDS011;46641;48.904;9.126;2023-12-28T12:06:33;1.17;;;1.08;;
60819;SDS011;46641;48.904;9.126;2023-12-28T12:11:23;1.50;;;1.40;;
60819;SDS011;46641;48.904;9.126;2023-12-28T12:16:13;2.13;;;1.60;;
60819;SDS011;46641;48.904;9.126;2023-12-28T12:21:04;1.33;;;1.20;;
60819;SDS011;46641;48.904;9.126;2023-12-28T12:25:56;1.70;;;1.60;;
60819;SDS011;46641;48.904;9.126;2023-12-28T12:30:50;1.80;;;1.47;;
60819;SDS011;46641;48.904;9.126;2023-12-28T12:35:43;1.80;;;1.70;;
60819;SDS011;46641;48.904;9.126;2023-12-28T12:40:34;2.10;;;1.90;;
60819;SDS011;46641;48.904;9.126;2023-12-28T12:45:24;3.30;;;3.00;;
60819;SDS011;46641;48.904;9.126;2023-12-28T12:50:15;4.13;;;3.17;;
60819;SDS011;46641;48.904;9.126;2023-12-28T12:55:06;3.30;;;3.00;;
60819;SDS011;46641;48.904;9.126;2023-12-28T13:00:00;3.70;;;3.00;;
60819;SDS011;46641;48.904;9.126;2023-12-28T13:04:52;3.10;;;2.63;;
60819;SDS011;46641;48.904;9.126;2023-12-28T13:09:43;4.57;;;3.60;;
60819;SDS011;46641;48.904;9.126;2023-12-28T13:14:33;3.38;;;2.92;;
60819;SDS011;46641;48.904;9.126;2023-12-28T13:19:24;4.90;;;3.10;;
60819;SDS011;46641;48.904;9.126;2023-12-28T13:24:14;3.30;;;2.60;;
60819;SDS011;46641;48.904;9.126;2023-12-28T13:29:05;3.10;;;2.80;;
60819;SDS011;46641;48.904;9.126;2023-12-28T13:33:55;2.38;;;2.20;;
60819;SDS011;46641;48.904;9.126;2023-12-28T13:38:45;2.20;;;2.00;;
60819;SDS011;46641;48.904;9.126;2023-12-28T13:43:35;2.45;;;2.25;;
60819;SDS011;46641;48.904;9.126;2023-12-28T13:48:26;2.42;;;2.22;;
60819;SDS011;46641;48.904;9.126;2023-12-28T13:53:16;2.83;;;2.60;;
60819;SDS011;46641;48.904;9.126;2023-12-28T13:58:06;3.77;;;2.90;;
60819;SDS011;46641;48.904;9.126;2023-12-28T14:02:57;3.00;;;2.50;;
60819;SDS011;46641;48.904;9.126;2023-12-28T14:07:49;2.47;;;2.03;;
60819;SDS011;46641;48.904;9.126;2023-12-28T14:12:39;3.05;;;2.70;;
60819;SDS011;46641;48.904;9.126;2023-12-28T14:17:29;2.55;;;2.35;;
60819;SDS011;46641;48.904;9.126;2023-12-28T14:22:20;2.47;;;2.27;;
60819;SDS011;46641;48.904;9.126;2023-12-28T14:27:11;2.27;;;2.07;;
60819;SDS011;46641;48.904;9.126;2023-12-28T14:32:01;2.30;;;2.10;;
60819;SDS011;46641;48.904;9.126;2023-12-28T14:36:52;3.97;;;2.40;;
60819;SDS011;46641;48.904;9.126;2023-12-28T14:41:43;2.30;;;2.10;;
60819;SDS011;46641;48.904;9.126;2023-12-28T14:46:34;2.93;;;2.33;;
60819;SDS011;46641;48.904;9.126;2023-12-28T14:51:25;2.20;;;2.10;;
60819;SDS011;46641;48.904;9.126;2023-12-28T14:56:15;6.38;;;4.68;;
60819;SDS011;46641;48.904;9.126;2023-12-28T15:01:05;3.60;;;2.97;;
60819;SDS011;46641;48.904;9.126;2023-12-28T15:05:56;10.67;;;7.33;;
60819;SDS011;46641;48.904;9.126;2023-12-28T15:10:46;11.80;;;10.07;;
60819;SDS011;46641;48.904;9.126;2023-12-28T15:15:37;5.83;;;4.73;;
60819;SDS011;46641;48.904;9.126;2023-12-28T15:20:27;11.73;;;7.77;;
60819;SDS011;46641;48.904;9.126;2023-12-28T15:25:18;12.80;;;8.50;;
60819;SDS011;46641;48.904;9.126;2023-12-28T15:30:10;7.93;;;6.10;;
60819;SDS011;46641;48.904;9.126;2023-12-28T15:35:00;8.73;;;5.20;;
60819;SDS011;46641;48.904;9.126;2023-12-28T15:39:52;7.10;;;6.40;;
60819;SDS011;46641;48.904;9.126;2023-12-28T15:44:42;4.97;;;4.22;;
60819;SDS011;46641;48.904;9.126;2023-12-28T15:49:33;3.30;;;2.57;;
60819;SDS011;46641;48.904;9.126;2023-12-28T15:54:23;4.55;;;4.15;;
60819;SDS011;46641;48.904;9.126;2023-12-28T15:59:13;5.93;;;5.53;;
60819;SDS011;46641;48.904;9.126;2023-12-28T16:04:03;4.10;;;3.70;;
60819;SDS011;46641;48.904;9.126;2023-12-28T16:08:54;5.50;;;5.00;;
60819;SDS011;46641;48.904;9.126;2023-12-28T16:13:44;3.60;;;3.10;;
60819;SDS011;46641;48.904;9.126;2023-12-28T16:18:35;5.07;;;4.57;;
60819;SDS011;46641;48.904;9.126;2023-12-28T16:23:26;5.67;;;5.13;;
60819;SDS011;46641;48.904;9.126;2023-12-28T16:28:16;4.67;;;4.37;;
60819;SDS011;46641;48.904;9.126;2023-12-28T16:33:06;8.97;;;8.17;;
60819;SDS011;46641;48.904;9.126;2023-12-28T16:37:56;8.63;;;7.72;;
60819;SDS011;46641;48.904;9.126;2023-12-28T16:42:47;3.87;;;3.57;;
60819;SDS011;46641;48.904;9.126;2023-12-28T16:47:39;3.03;;;2.73;;
60819;SDS011;46641;48.904;9.126;2023-12-28T16:52:30;5.40;;;4.83;;
60819;SDS011;46641;48.904;9.126;2023-12-28T16:57:21;3.60;;;3.30;;
60819;SDS011;46641;48.904;9.126;2023-12-28T17:02:11;5.28;;;3.33;;
60819;SDS011;46641;48.904;9.126;2023-12-28T17:07:01;3.22;;;2.92;;
60819;SDS011;46641;48.904;9.126;2023-12-28T17:11:57;3.30;;;3.00;;
60819;SDS011;46641;48.904;9.126;2023-12-28T17:17:10;3.47;;;2.90;;
60819;SDS011;46641;48.904;9.126;2023-12-28T17:22:03;3.33;;;3.03;;
60819;SDS011;46641;48.904;9.126;2023-12-28T17:26:55;6.00;;;5.50;;
60819;SDS011;46641;48.904;9.126;2023-12-28T17:31:49;6.17;;;5.73;;
60819;SDS011;46641;48.904;9.126;2023-12-28T17:36:41;3.67;;;3.37;;
60819;SDS011;46641;48.904;9.126;2023-12-28T17:41:31;4.93;;;4.53;;
60819;SDS011;46641;48.904;9.126;2023-12-28T17:46:30;2.90;;;2.70;;
60819;SDS011;46641;48.904;9.126;2023-12-28T17:51:28;3.07;;;2.77;;
60819;SDS011;46641;48.904;9.126;2023-12-28T17:56:19;2.90;;;2.70;;
60819;SDS011;46641;48.904;9.126;2023-12-28T18:01:09;2.93;;;2.73;;
60819;SDS011;46641;48.904;9.126;2023-12-28T18:06:00;3.17;;;2.88;;
60819;SDS011;46641;48.904;9.126;2023-12-28T18:10:50;2.93;;;2.67;;
60819;SDS011;46641;48.904;9.126;2023-12-28T18:15:41;2.67;;;2.47;;
60819;SDS011;46641;48.904;9.126;2023-12-28T18:20:31;2.90;;;2.70;;
60819;SDS011;46641;48.904;9.126;2023-12-28T18:25:21;2.63;;;2.43;;
60819;SDS011;46641;48.904;9.126;2023-12-28T18:30:12;2.92;;;2.72;;
60819;SDS011;46641;48.904;9.126;2023-12-28T18:35:02;4.00;;;3.60;;
60819;SDS011;46641;48.904;9.126;2023-12-28T18:39:53;3.00;;;2.53;;
60819;SDS011;46641;48.904;9.126;2023-12-28T18:44:43;2.73;;;2.50;;
60819;SDS011;46641;48.904;9.126;2023-12-28T18:49:33;3.27;;;2.60;;
60819;SDS011;46641;48.904;9.126;2023-12-28T18:54:24;3.10;;;2.80;;
60819;SDS011;46641;48.904;9.126;2023-12-28T18:59:14;2.73;;;2.53;;
60819;SDS011;46641;48.904;9.126;2023-12-28T19:04:04;2.67;;;2.33;;
60819;SDS011;46641;48.904;9.126;2023-12-28T19:08:55;3.63;;;2.90;;
60819;SDS011;46641;48.904;9.126;2023-12-28T19:13:45;3.00;;;2.70;;
60819;SDS011;46641;48.904;9.126;2023-12-28T19:18:35;3.28;;;2.97;;
60819;SDS011;46641;48.904;9.126;2023-12-28T19:23:25;2.63;;;2.43;;
60819;SDS011;46641;48.904;9.126;2023-12-28T19:28:16;2.85;;;2.65;;
60819;SDS011;46641;48.904;9.126;2023-12-28T19:33:06;3.00;;;2.67;;
60819;SDS011;46641;48.904;9.126;2023-12-28T19:37:56;2.55;;;2.35;;
60819;SDS011;46641;48.904;9.126;2023-12-28T19:42:47;2.90;;;2.60;;
60819;SDS011;46641;48.904;9.126;2023-12-28T19:47:37;2.97;;;2.67;;
60819;SDS011;46641;48.904;9.126;2023-12-28T19:52:28;2.45;;;2.25;;
60819;SDS011;46641;48.904;9.126;2023-12-28T19:57:18;2.83;;;2.43;;
60819;SDS011;46641;48.904;9.126;2023-12-28T20:02:08;2.70;;;2.50;;
60819;SDS011;46641;48.904;9.126;2023-12-28T20:07:01;2.40;;;2.20;;
60819;SDS011;46641;48.904;9.126;2023-12-28T20:11:51;2.57;;;2.37;;
60819;SDS011;46641;48.904;9.126;2023-12-28T20:16:42;2.63;;;2.17;;
60819;SDS011;46641;48.904;9.126;2023-12-28T20:21:35;3.83;;;2.10;;
60819;SDS011;46641;48.904;9.126;2023-12-28T20:26:26;1.97;;;1.87;;
60819;SDS011;46641;48.904;9.126;2023-12-28T20:31:19;2.00;;;1.90;;
60819;SDS011;46641;48.904;9.126;2023-12-28T20:36:11;2.50;;;2.30;;
60819;SDS011;46641;48.904;9.126;2023-12-28T20:41:01;2.20;;;2.00;;
60819;SDS011;46641;48.904;9.126;2023-12-28T20:45:55;2.50;;;2.30;;
60819;SDS011;46641;48.904;9.126;2023-12-28T20:50:46;2.77;;;2.13;;
60819;SDS011;46641;48.904;9.126;2023-12-28T20:55:36;2.00;;;1.90;;
60819;SDS011;46641;48.904;9.126;2023-12-28T21:00:26;3.20;;;2.07;;
60819;SDS011;46641;48.904;9.126;2023-12-28T21:05:17;2.72;;;2.53;;
60819;SDS011;46641;48.904;9.126;2023-12-28T21:10:07;3.60;;;2.20;;
60819;SDS011;46641;48.904;9.126;2023-12-28T21:14:57;2.10;;;1.93;;
60819;SDS011;46641;48.904;9.126;2023-12-28T21:19:48;3.37;;;2.30;;
60819;SDS011;46641;48.904;9.126;2023-12-28T21:24:38;2.20;;;2.00;;
60819;SDS011;46641;48.904;9.126;2023-12-28T21:29:30;1.80;;;1.70;;
60819;SDS011;46641;48.904;9.126;2023-12-28T21:34:20;1.80;;;1.70;;
60819;SDS011;46641;48.904;9.126;2023-12-28T21:39:11;1.60;;;1.50;;
60819;SDS011;46641;48.904;9.126;2023-12-28T21:44:02;2.20;;;2.00;;
60819;SDS011;46641;48.904;9.126;2023-12-28T21:48:53;1.50;;;1.40;;
60819;SDS011;46641;48.904;9.126;2023-12-28T21:53:44;2.20;;;2.00;;
60819;SDS011;46641;48.904;9.126;2023-12-28T21:58:35;1.92;;;1.83;;
60819;SDS011;46641;48.904;9.126;2023-12-28T22:03:25;1.70;;;1.60;;
60819;SDS011;46641;48.904;9.126;2023-12-28T22:08:15;1.60;;;1.50;;
60819;SDS011;46641;48.904;9.126;2023-12-28T22:13:06;1.77;;;1.65;;
60819;SDS011;46641;48.904;9.126;2023-12-28T22:17:56;1.90;;;1.80;;
60819;SDS011;46641;48.904;9.126;2023-12-28T22:22:47;1.77;;;1.67;;
60819;SDS011;46641;48.904;9.126;2023-12-28T22:27:37;1.90;;;1.80;;
60819;SDS011;46641;48.904;9.126;2023-12-28T22:32:27;2.30;;;2.10;;
60819;SDS011;46641;48.904;9.126;2023-12-28T22:37:18;1.37;;;1.27;;
60819;SDS011;46641;48.904;9.126;2023-12-28T22:42:08;1.45;;;1.35;;
60819;SDS011;46641;48.904;9.126;2023-12-28T22:47:01;1.60;;;1.50;;
60819;SDS011;46641;48.904;9.126;2023-12-28T22:51:51;1.70;;;1.60;;
60819;SDS011;46641;48.904;9.126;2023-12-28T22:56:41;1.30;;;1.20;;
60819;SDS011;46641;48.904;9.126;2023-12-28T23:01:32;1.83;;;1.73;;
60819;SDS011;46641;48.904;9.126;2023-12-28T23:06:22;1.92;;;1.83;;
60819;SDS011;46641;48.904;9.126;2023-12-28T23:11:12;1.60;;;1.50;;
60819;SDS011;46641;48.904;9.126;2023-12-28T23:16:03;2.00;;;1.80;;
60819;SDS011;46641;48.904;9.126;2023-12-28T23:20:53;1.43;;;1.33;;
60819;SDS011;46641;48.904;9.126;2023-12-28T23:25:43;1.90;;;1.80;;
60819;SDS011;46641;48.904;9.126;2023-12-28T23:30:34;2.20;;;2.00;;
60819;SDS011;46641;48.904;9.126;2023-12-28T23:35:27;2.00;;;1.90;;
60819;SDS011;46641;48.904;9.126;2023-12-28T23:40:18;2.35;;;2.10;;
60819;SDS011;46641;48.904;9.126;2023-12-28T23:45:08;2.57;;;2.37;;
60819;SDS011;46641;48.904;9.126;2023-12-28T23:49:59;3.13;;;2.40;;
60819;SDS011;46641;48.904;9.126;2023-12-28T23:54:50;3.47;;;2.00;;
60819;SDS011;46641;48.904;9.126;2023-12-28T23:59:40;2.23;;;2.10;;
